This is the latest recevied weather packets stored in our database for station/object IW4DZV-13. If no packets are shown the sender has not sent any weather packets the latest 1 day(s).
| Time | Temp. | Humidity | Pressure | Rain* | Wind** | Luminosity | Snow |
|---|---|---|---|---|---|---|---|
| 1836274705 | 16.67° C | 89% | 1023.9 hPa | 0 mm | 0 m/s | 0 W/m² | - |
| 1778009404 | 14.44° C | 87% | 1011.5 hPa | 5.33 mm | 0 m/s | 0 W/m² | - |
| 1778008505 | 15° C | 86% | 1011.4 hPa | 5.33 mm | 0 m/s | 0 W/m² | - |
| 1778007604 | 15.56° C | 85% | 1011.3 hPa | 5.33 mm | 0 m/s | 0 W/m² | - |
| 1778006704 | 15.56° C | 84% | 1011.2 hPa | 5.33 mm | 0 m/s | 0 W/m² | - |
| 1778005802 | 16.11° C | 83% | 1011.2 hPa | 5.33 mm | 0.45 m/s, 360° | 0 W/m² | - |
| 1778004905 | 16.67° C | 81% | 1011.2 hPa | 5.33 mm | 0.45 m/s, 360° | 9 W/m² | - |
| 1778004002 | 17.22° C | 80% | 1011.2 hPa | 5.33 mm | 0 m/s | 16 W/m² | - |
| 1778003102 | 17.78° C | 78% | 1011.2 hPa | 5.33 mm | 0 m/s | 21 W/m² | - |
| 1778002203 | 18.33° C | 76% | 1011 hPa | 5.33 mm | 0.45 m/s, 360° | 32 W/m² | - |
| 1778001301 | 18.89° C | 75% | 1010.9 hPa | 5.33 mm | 0 m/s | 37 W/m² | - |
| 1778000400 | 18.89° C | 74% | 1010.8 hPa | 5.33 mm | 0 m/s | 44 W/m² | - |
| 1777999565 | 18.89° C | 73% | 1010.7 hPa | 5.33 mm | 0 m/s | 63 W/m² | - |
| 1777998662 | 18.89° C | 73% | 1010.8 hPa | 5.33 mm | 0 m/s | 60 W/m² | - |
| 1777997759 | 19.44° C | 72% | 1011 hPa | 5.33 mm | 0 m/s | 90 W/m² | - |
| 1777996859 | 20° C | 71% | 1011 hPa | 5.33 mm | 0 m/s | 139 W/m² | - |
| 1777995969 | 21.11° C | 69% | 1011.1 hPa | 5.33 mm | 0.45 m/s, 360° | 95 W/m² | - |
| 1777995074 | 20.56° C | 69% | 1010.9 hPa | 5.33 mm | 0.45 m/s, 360° | 475 W/m² | - |
| 1777994158 | 19.44° C | 72% | 1010.9 hPa | 5.33 mm | 0 m/s | 345 W/m² | - |
| 1777993252 | 19.44° C | 72% | 1011.2 hPa | 5.33 mm | 0.45 m/s, 360° | 227 W/m² | - |
| 1777992361 | 20° C | 71% | 1011.2 hPa | 5.33 mm | 0.45 m/s, 360° | 244 W/m² | - |
| 1777991451 | 19.44° C | 73% | 1011.3 hPa | 5.33 mm | 0.45 m/s, 360° | 213 W/m² | - |
| 1777990546 | 18.89° C | 72% | 1011.3 hPa | 5.33 mm | 0 m/s | 148 W/m² | - |
| 1777989646 | 18.89° C | 73% | 1011.5 hPa | 5.33 mm | 0 m/s | 323 W/m² | - |
| 1777988744 | 18.89° C | 74% | 1011.8 hPa | 5.33 mm | 0 m/s | 316 W/m² | - |
* Rain since midnight (hover to see other rain measurements)
** Current wind speed in m/s (hover to see current wind gust speed)